createdAt,value
2023-02-27T00:00:57.561Z,22.62
2023-02-27T00:03:23.940Z,22.35
2023-02-27T00:05:50.295Z,22.15
2023-02-27T00:08:16.854Z,22.75
2023-02-27T00:10:43.187Z,22.37
2023-02-27T00:13:09.549Z,22.13
2023-02-27T00:15:35.912Z,22.29
2023-02-27T00:18:02.231Z,22.72
2023-02-27T00:20:28.555Z,22.82
2023-02-27T00:22:54.887Z,22.71
2023-02-27T00:25:21.188Z,22.44
2023-02-27T00:27:47.498Z,22.21
2023-02-27T00:30:13.899Z,22.20
2023-02-27T00:32:40.219Z,22.75
2023-02-27T00:35:06.589Z,23.03
2023-02-27T00:37:32.931Z,22.04
2023-02-27T00:39:59.243Z,22.45
2023-02-27T00:42:25.608Z,22.29
2023-02-27T00:44:51.981Z,22.25
2023-02-27T00:47:18.458Z,22.58
2023-02-27T00:49:44.827Z,22.50
2023-02-27T00:52:11.207Z,22.66
2023-02-27T00:54:37.530Z,22.27
2023-02-27T00:57:03.858Z,22.49
2023-02-27T00:59:30.238Z,22.42
2023-02-27T01:01:56.659Z,22.32
2023-02-27T01:04:22.988Z,22.43
2023-02-27T01:06:49.359Z,21.87
2023-02-27T01:09:15.824Z,22.44
2023-02-27T01:11:42.131Z,22.40
2023-02-27T01:14:08.501Z,22.13
2023-02-27T01:16:34.863Z,22.70
2023-02-27T01:19:01.238Z,22.20
2023-02-27T01:21:27.777Z,22.49
2023-02-27T01:23:54.263Z,23.32
2023-02-27T01:26:20.635Z,22.40
2023-02-27T01:28:46.988Z,22.68
2023-02-27T01:31:13.349Z,22.43
2023-02-27T01:33:39.685Z,22.60
2023-02-27T01:36:06.019Z,22.63
2023-02-27T01:38:32.373Z,22.31
2023-02-27T01:40:58.751Z,22.04
2023-02-27T01:43:25.120Z,22.08
2023-02-27T01:45:51.572Z,22.35
2023-02-27T01:48:17.965Z,22.73
2023-02-27T01:50:44.316Z,22.49
2023-02-27T01:53:10.720Z,22.48
2023-02-27T01:55:37.085Z,22.14
2023-02-27T01:58:03.396Z,22.39
2023-02-27T02:00:29.733Z,22.79
2023-02-27T02:02:56.040Z,22.42
2023-02-27T02:05:22.347Z,22.41
2023-02-27T02:07:48.656Z,22.83
2023-02-27T02:10:15.025Z,22.96
2023-02-27T02:12:41.460Z,22.72
2023-02-27T02:15:07.808Z,22.77
2023-02-27T02:17:34.132Z,22.57
2023-02-27T02:20:00.438Z,22.51
2023-02-27T02:22:26.817Z,22.61
2023-02-27T02:24:53.147Z,22.70
2023-02-27T02:27:19.510Z,22.38
2023-02-27T02:29:45.814Z,22.86
2023-02-27T02:32:12.149Z,22.35
2023-02-27T02:34:38.541Z,22.61
2023-02-27T02:37:04.922Z,22.58
2023-02-27T02:39:31.266Z,22.31
2023-02-27T02:41:57.611Z,22.63
2023-02-27T02:44:24.093Z,22.66
2023-02-27T02:46:50.404Z,22.54
2023-02-27T02:49:16.740Z,22.74
2023-02-27T02:51:43.102Z,22.52
2023-02-27T02:54:09.415Z,22.67
2023-02-27T02:56:35.749Z,22.42
2023-02-27T02:59:02.067Z,22.10
2023-02-27T03:01:28.708Z,22.94
2023-02-27T03:03:55.240Z,22.43
2023-02-27T03:06:21.595Z,22.75
2023-02-27T03:08:47.907Z,22.68
2023-02-27T03:11:14.279Z,22.33
2023-02-27T03:13:40.613Z,22.09
2023-02-27T03:16:07.023Z,22.86
2023-02-27T03:18:33.435Z,22.19
2023-02-27T03:20:59.831Z,22.30
2023-02-27T03:23:26.168Z,23.00
2023-02-27T03:25:52.534Z,22.55
2023-02-27T03:28:18.893Z,22.25
2023-02-27T03:30:45.386Z,22.68
2023-02-27T03:33:11.824Z,22.84
2023-02-27T03:35:38.136Z,22.51
2023-02-27T03:38:04.557Z,23.42
2023-02-27T03:40:30.909Z,22.50
2023-02-27T03:42:57.272Z,22.59
2023-02-27T03:45:23.745Z,22.29
2023-02-27T03:47:50.054Z,22.47
2023-02-27T03:50:16.351Z,22.96
2023-02-27T03:52:42.820Z,22.02
2023-02-27T03:55:09.176Z,23.10
2023-02-27T03:57:35.483Z,22.51
2023-02-27T04:00:01.851Z,22.31
2023-02-27T04:02:28.200Z,22.27
2023-02-27T04:04:54.530Z,22.72
2023-02-27T04:07:20.841Z,22.55
2023-02-27T04:09:47.168Z,21.91
2023-02-27T04:12:13.533Z,22.04
2023-02-27T04:14:39.897Z,22.13
2023-02-27T04:17:06.253Z,22.15
2023-02-27T04:19:32.597Z,22.12
2023-02-27T04:21:58.930Z,22.24
2023-02-27T04:24:25.301Z,21.80
2023-02-27T04:26:51.746Z,21.95
2023-02-27T04:29:18.086Z,22.00
2023-02-27T04:31:44.556Z,22.21
2023-02-27T04:34:11.011Z,22.19
2023-02-27T04:36:37.366Z,22.15
2023-02-27T04:39:03.729Z,21.89
2023-02-27T04:41:30.056Z,22.01
2023-02-27T04:43:56.383Z,22.06
2023-02-27T04:46:22.747Z,21.94
2023-02-27T04:48:49.095Z,21.95
2023-02-27T04:51:15.449Z,22.25
2023-02-27T04:53:41.826Z,21.66
2023-02-27T04:56:08.203Z,21.94
2023-02-27T04:58:34.563Z,22.13
2023-02-27T05:01:00.930Z,22.33
2023-02-27T05:03:27.335Z,22.17
2023-02-27T05:05:53.691Z,21.66
2023-02-27T05:08:20.064Z,21.98
2023-02-27T05:10:46.419Z,22.02
2023-02-27T05:13:12.706Z,21.94
2023-02-27T05:15:39.123Z,22.24
2023-02-27T05:18:05.560Z,21.75
2023-02-27T05:20:31.899Z,22.06
2023-02-27T05:22:58.405Z,22.07
2023-02-27T05:25:24.716Z,22.86
2023-02-27T05:27:51.064Z,22.28
2023-02-27T05:30:17.429Z,22.15
2023-02-27T05:32:43.748Z,22.54
2023-02-27T05:35:10.120Z,22.54
2023-02-27T05:37:36.593Z,22.61
2023-02-27T05:40:02.914Z,22.91
2023-02-27T05:42:29.271Z,22.71
2023-02-27T05:44:55.611Z,22.88
2023-02-27T05:47:21.920Z,22.78
2023-02-27T05:49:48.231Z,23.03
2023-02-27T05:52:14.552Z,22.88
2023-02-27T05:54:40.863Z,23.07
2023-02-27T05:57:07.215Z,22.93
2023-02-27T05:59:33.543Z,23.18
2023-02-27T06:01:59.967Z,22.76
2023-02-27T06:04:26.342Z,22.49
2023-02-27T06:06:52.727Z,22.99
2023-02-27T06:09:19.045Z,22.37
2023-02-27T06:11:45.365Z,22.54
2023-02-27T06:14:11.785Z,22.58
2023-02-27T06:16:38.235Z,22.73
2023-02-27T06:19:05.063Z,22.48
2023-02-27T06:21:31.502Z,22.97
2023-02-27T06:23:57.893Z,22.71
2023-02-27T06:26:24.229Z,22.80
2023-02-27T06:28:51.707Z,22.56
2023-02-27T06:31:18.093Z,22.60
2023-02-27T06:33:44.494Z,22.69
2023-02-27T06:36:10.911Z,22.23
2023-02-27T06:38:37.284Z,22.52
2023-02-27T06:41:03.608Z,22.76
2023-02-27T06:43:29.966Z,22.88
2023-02-27T06:45:56.359Z,22.83
2023-02-27T06:48:22.735Z,22.85
2023-02-27T06:50:49.052Z,22.70
2023-02-27T06:53:15.379Z,22.75
2023-02-27T06:55:41.753Z,22.29
2023-02-27T06:58:08.110Z,22.44
2023-02-27T07:00:34.426Z,22.70
2023-02-27T07:03:00.747Z,22.92
2023-02-27T07:05:27.115Z,22.94
2023-02-27T07:07:53.430Z,22.95
2023-02-27T07:10:19.800Z,22.33
2023-02-27T07:12:46.371Z,23.15
2023-02-27T07:15:12.746Z,22.75
2023-02-27T07:17:39.128Z,23.04
2023-02-27T07:20:05.484Z,22.65
2023-02-27T07:22:31.792Z,22.55
2023-02-27T07:24:58.180Z,22.86
2023-02-27T07:27:24.494Z,22.68
2023-02-27T07:29:50.910Z,22.72
2023-02-27T07:32:17.295Z,22.51
2023-02-27T07:34:43.660Z,22.71
2023-02-27T07:37:10.046Z,22.79
2023-02-27T07:39:36.394Z,22.58
2023-02-27T07:42:02.778Z,22.84
2023-02-27T07:44:29.157Z,23.32
2023-02-27T07:46:55.539Z,23.31
2023-02-27T07:49:21.883Z,23.73
2023-02-27T07:51:48.195Z,23.40
2023-02-27T07:54:14.570Z,23.18
2023-02-27T07:56:40.886Z,22.97
2023-02-27T07:59:07.188Z,23.68
2023-02-27T08:01:33.560Z,23.38
2023-02-27T08:03:59.974Z,23.16
2023-02-27T08:06:26.555Z,23.11
2023-02-27T08:08:53.023Z,23.72
2023-02-27T08:11:19.357Z,23.22
2023-02-27T08:14:00.042Z,22.83
2023-02-27T08:16:27.659Z,22.92
2023-02-27T08:18:54.184Z,22.94
2023-02-27T08:21:20.556Z,23.02
2023-02-27T08:23:47.018Z,23.28
2023-02-27T08:26:13.322Z,23.42
2023-02-27T08:28:39.675Z,25.19
2023-02-27T08:31:06.113Z,25.08
2023-02-27T08:33:32.509Z,24.38
2023-02-27T08:35:58.937Z,24.59
2023-02-27T08:38:26.453Z,24.62
2023-02-27T08:40:52.931Z,24.96
2023-02-27T08:43:19.247Z,24.64
2023-02-27T08:45:45.684Z,24.40
2023-02-27T08:48:12.330Z,23.53
2023-02-27T08:50:38.646Z,24.08
2023-02-27T08:53:05.010Z,23.44
2023-02-27T08:55:31.393Z,23.04
2023-02-27T08:57:57.781Z,22.55
2023-02-27T09:00:24.329Z,22.36
2023-02-27T09:02:50.835Z,22.58
2023-02-27T09:05:17.162Z,22.49
2023-02-27T09:07:43.490Z,22.08
2023-02-27T09:10:09.803Z,22.06
2023-02-27T09:12:36.100Z,22.46
2023-02-27T09:15:02.466Z,22.10
2023-02-27T09:17:28.784Z,21.77
2023-02-27T09:19:57.320Z,22.04
2023-02-27T09:22:23.870Z,22.33
2023-02-27T09:24:50.198Z,21.43
2023-02-27T09:27:16.548Z,22.10
2023-02-27T09:29:42.901Z,21.92
2023-02-27T09:32:09.332Z,22.19
2023-02-27T09:34:35.760Z,23.06
2023-02-27T09:37:02.342Z,22.34
2023-02-27T09:39:28.664Z,24.37
2023-02-27T09:41:55.016Z,22.97
2023-02-27T09:44:30.677Z,24.08
2023-02-27T09:47:02.893Z,24.64
2023-02-27T09:49:29.249Z,24.88
2023-02-27T09:51:55.683Z,25.10
2023-02-27T09:54:22.064Z,25.84
2023-02-27T09:56:48.367Z,25.77
2023-02-27T09:59:14.667Z,25.50
2023-02-27T10:01:41.137Z,24.88
2023-02-27T10:04:09.425Z,25.37
2023-02-27T10:06:37.296Z,23.89
2023-02-27T10:09:03.679Z,24.97
2023-02-27T10:11:29.983Z,24.13
2023-02-27T10:13:56.315Z,23.72
2023-02-27T10:16:22.732Z,23.93
2023-02-27T10:18:49.119Z,23.61
2023-02-27T10:21:15.500Z,23.50
2023-02-27T10:23:41.816Z,23.13
2023-02-27T10:26:08.126Z,22.94
2023-02-27T10:28:34.485Z,22.64
2023-02-27T10:31:00.855Z,22.58
2023-02-27T10:33:28.351Z,22.68
2023-02-27T10:35:54.866Z,22.64
2023-02-27T10:38:21.209Z,22.65
2023-02-27T10:40:47.539Z,22.33
2023-02-27T10:43:13.839Z,22.04
2023-02-27T10:45:40.192Z,21.91
2023-02-27T10:48:06.532Z,21.96
2023-02-27T10:50:32.841Z,21.79
2023-02-27T10:52:59.213Z,21.90
2023-02-27T10:55:25.570Z,21.87
2023-02-27T10:57:51.962Z,21.50
2023-02-27T11:00:18.321Z,21.62
2023-02-27T11:02:44.710Z,21.22
2023-02-27T11:05:11.189Z,21.36
2023-02-27T11:07:37.526Z,21.22
2023-02-27T11:10:03.856Z,21.29
2023-02-27T11:12:30.288Z,21.41
2023-02-27T11:14:56.710Z,21.07
2023-02-27T11:17:23.110Z,21.60
2023-02-27T11:19:49.430Z,21.79
2023-02-27T11:22:15.772Z,22.19
2023-02-27T11:24:42.100Z,22.02
2023-02-27T11:27:08.411Z,22.25
2023-02-27T11:29:34.793Z,22.28
2023-02-27T11:32:01.207Z,22.99
2023-02-27T11:34:27.612Z,22.83
2023-02-27T11:36:53.992Z,22.87
2023-02-27T11:39:20.446Z,22.05
2023-02-27T11:41:46.760Z,21.93
2023-02-27T11:44:13.116Z,22.39
2023-02-27T11:46:48.122Z,21.63
2023-02-27T11:49:14.934Z,21.87
2023-02-27T11:51:41.319Z,21.55
2023-02-27T11:54:07.683Z,21.49
2023-02-27T11:56:36.060Z,21.73
2023-02-27T11:59:02.610Z,21.52
2023-02-27T12:01:29.282Z,22.18
2023-02-27T12:03:55.824Z,22.44
2023-02-27T12:06:22.200Z,21.41
2023-02-27T12:08:48.533Z,22.40
2023-02-27T12:11:14.971Z,22.76
2023-02-27T12:13:41.371Z,22.44
2023-02-27T12:16:07.746Z,22.22
2023-02-27T12:18:34.067Z,22.97
2023-02-27T12:21:00.403Z,22.27
2023-02-27T12:23:26.706Z,24.19
2023-02-27T12:25:53.196Z,23.56
2023-02-27T12:28:19.538Z,21.98
2023-02-27T12:30:45.894Z,22.09
2023-02-27T12:33:12.208Z,21.69
2023-02-27T12:35:38.609Z,21.57
2023-02-27T12:38:07.252Z,21.72
2023-02-27T12:40:33.646Z,21.62
2023-02-27T12:43:00.031Z,21.37
2023-02-27T12:45:26.425Z,21.62
2023-02-27T12:47:52.813Z,21.16
2023-02-27T12:50:19.165Z,21.13
2023-02-27T12:52:45.505Z,20.91
2023-02-27T12:55:11.833Z,20.77
2023-02-27T12:57:38.156Z,20.89
2023-02-27T13:00:04.530Z,20.98
2023-02-27T13:02:30.851Z,21.00
2023-02-27T13:04:57.171Z,21.10
2023-02-27T13:07:23.471Z,21.14
2023-02-27T13:09:49.849Z,21.21
2023-02-27T13:12:16.168Z,21.29
2023-02-27T13:14:42.473Z,21.76
2023-02-27T13:17:08.787Z,21.51
2023-02-27T13:19:35.164Z,21.23
2023-02-27T13:22:01.553Z,21.21
2023-02-27T13:24:27.929Z,20.80
2023-02-27T13:26:54.284Z,21.19
2023-02-27T13:29:20.711Z,20.82
2023-02-27T13:31:47.150Z,21.21
2023-02-27T13:34:13.595Z,21.35
2023-02-27T13:36:40.103Z,20.85
2023-02-27T13:39:06.455Z,21.09
2023-02-27T13:41:35.519Z,21.00
2023-02-27T13:44:02.350Z,20.99
2023-02-27T13:46:28.720Z,21.08
2023-02-27T13:48:55.078Z,21.16
2023-02-27T13:51:21.582Z,20.79
2023-02-27T13:53:47.956Z,20.88
2023-02-27T13:56:14.302Z,21.12
2023-02-27T13:58:40.692Z,21.89
2023-02-27T14:01:07.091Z,20.71
2023-02-27T14:03:33.456Z,20.78
2023-02-27T14:05:59.822Z,21.11
2023-02-27T14:08:26.230Z,20.80
2023-02-27T14:10:52.606Z,21.28
2023-02-27T14:13:18.949Z,21.20
2023-02-27T14:15:45.450Z,20.72
2023-02-27T14:18:22.854Z,20.61
2023-02-27T14:20:55.346Z,20.44
2023-02-27T14:23:21.782Z,22.66
2023-02-27T14:25:48.148Z,22.95
2023-02-27T14:28:14.549Z,23.57
2023-02-27T14:30:40.935Z,23.48
2023-02-27T14:33:08.268Z,24.00
2023-02-27T14:35:34.697Z,26.38
2023-02-27T14:38:01.094Z,26.73
2023-02-27T14:40:29.992Z,25.81
2023-02-27T14:42:56.907Z,25.45
2023-02-27T14:45:24.444Z,26.47
2023-02-27T14:47:51.004Z,26.88
2023-02-27T14:50:17.389Z,26.74
2023-02-27T14:52:43.755Z,26.72
2023-02-27T14:55:10.198Z,23.77
2023-02-27T14:57:36.620Z,26.49
2023-02-27T15:00:03.024Z,25.69
2023-02-27T15:02:29.454Z,25.97
2023-02-27T15:04:55.878Z,24.87
2023-02-27T15:07:22.304Z,25.01
2023-02-27T15:09:48.790Z,24.14
2023-02-27T15:12:15.251Z,23.39
2023-02-27T15:14:41.646Z,23.17
2023-02-27T15:17:07.987Z,23.65
2023-02-27T15:19:34.330Z,23.62
2023-02-27T15:22:00.844Z,22.65
2023-02-27T15:24:31.168Z,22.52
2023-02-27T15:26:59.500Z,23.13
2023-02-27T15:29:25.888Z,22.50
2023-02-27T15:31:52.303Z,22.14
2023-02-27T15:34:18.722Z,21.98
2023-02-27T15:36:45.091Z,21.78
2023-02-27T15:39:11.445Z,21.83
2023-02-27T15:41:37.785Z,21.93
2023-02-27T15:44:04.183Z,22.30
2023-02-27T15:46:30.606Z,22.86
2023-02-27T15:48:57.025Z,22.54
2023-02-27T15:51:23.385Z,22.73
2023-02-27T15:53:49.702Z,22.27
2023-02-27T15:56:16.090Z,22.88
2023-02-27T15:58:42.469Z,23.10
2023-02-27T16:01:08.886Z,24.19
2023-02-27T16:03:35.271Z,23.42
2023-02-27T16:06:01.925Z,25.89
2023-02-27T16:08:28.269Z,25.67
2023-02-27T16:10:54.716Z,25.06
2023-02-27T16:13:21.143Z,24.83
2023-02-27T16:15:47.524Z,23.68
2023-02-27T16:18:13.937Z,23.45
2023-02-27T16:20:40.277Z,23.05
2023-02-27T16:23:06.615Z,22.70
2023-02-27T16:25:33.010Z,22.38
2023-02-27T16:27:59.329Z,22.53
2023-02-27T16:30:25.772Z,22.15
2023-02-27T16:32:52.114Z,22.27
2023-02-27T16:35:18.499Z,21.66
2023-02-27T16:37:44.912Z,21.72
2023-02-27T16:40:11.306Z,21.87
2023-02-27T16:42:37.751Z,21.49
2023-02-27T16:45:04.276Z,21.44
2023-02-27T16:47:30.735Z,21.88
2023-02-27T16:49:57.331Z,22.01
2023-02-27T16:52:23.672Z,21.79
2023-02-27T16:54:50.087Z,21.84
2023-02-27T16:57:16.816Z,21.99
2023-02-27T16:59:43.233Z,21.87
2023-02-27T17:02:09.606Z,21.96
2023-02-27T17:04:36.103Z,22.10
2023-02-27T17:07:04.124Z,21.58
2023-02-27T17:09:31.796Z,21.94
2023-02-27T17:11:58.179Z,21.73
2023-02-27T17:14:24.577Z,21.83
2023-02-27T17:16:51.026Z,22.13
2023-02-27T17:19:17.463Z,22.05
2023-02-27T17:21:43.880Z,22.10
2023-02-27T17:24:10.262Z,22.10
2023-02-27T17:26:36.680Z,22.03
2023-02-27T17:29:03.069Z,22.42
2023-02-27T17:31:29.477Z,22.05
2023-02-27T17:33:55.866Z,21.80
2023-02-27T17:36:22.242Z,21.55
2023-02-27T17:38:48.581Z,21.99
2023-02-27T17:41:14.986Z,21.83
2023-02-27T17:43:41.376Z,22.08
2023-02-27T17:46:07.797Z,22.20
2023-02-27T17:48:37.019Z,22.40
2023-02-27T17:51:03.378Z,22.47
2023-02-27T17:53:29.820Z,22.01
2023-02-27T17:55:56.247Z,22.02
2023-02-27T17:58:22.679Z,21.49
2023-02-27T18:00:49.005Z,21.77
2023-02-27T18:03:15.312Z,21.16
2023-02-27T18:05:41.632Z,21.54
2023-02-27T18:08:07.997Z,21.61
2023-02-27T18:10:34.367Z,20.78
2023-02-27T18:13:00.722Z,21.25
2023-02-27T18:15:27.183Z,21.07
2023-02-27T18:17:53.540Z,21.01
2023-02-27T18:20:19.964Z,20.96
2023-02-27T18:22:46.365Z,20.91
2023-02-27T18:25:12.699Z,21.07
2023-02-27T18:27:39.075Z,21.12
2023-02-27T18:30:05.478Z,20.92
2023-02-27T18:32:31.824Z,20.85
2023-02-27T18:34:58.208Z,21.28
2023-02-27T18:37:24.560Z,21.74
2023-02-27T18:39:50.894Z,21.72
2023-02-27T18:42:17.313Z,22.14
2023-02-27T18:44:43.741Z,21.22
2023-02-27T18:47:10.083Z,21.16
2023-02-27T18:49:36.443Z,21.35
2023-02-27T18:52:02.764Z,21.19
2023-02-27T18:54:29.132Z,21.49
2023-02-27T18:56:55.523Z,21.26
2023-02-27T18:59:21.834Z,21.62
2023-02-27T19:01:48.144Z,21.45
2023-02-27T19:04:14.489Z,21.31
2023-02-27T19:06:40.937Z,21.55
2023-02-27T19:09:07.529Z,21.70
2023-02-27T19:11:33.874Z,21.53
2023-02-27T19:14:00.221Z,21.65
2023-02-27T19:16:27.006Z,21.62
2023-02-27T19:18:53.776Z,21.07
2023-02-27T19:21:20.154Z,22.79
2023-02-27T19:23:46.572Z,22.27
2023-02-27T19:26:12.933Z,22.08
2023-02-27T19:28:39.303Z,22.08
2023-02-27T19:31:05.739Z,23.05
2023-02-27T19:33:32.101Z,22.65
2023-02-27T19:35:58.424Z,22.61
2023-02-27T19:38:24.904Z,22.03
2023-02-27T19:40:51.230Z,21.93
2023-02-27T19:43:17.633Z,21.67
2023-02-27T19:45:44.009Z,21.51
2023-02-27T19:48:10.395Z,21.65
2023-02-27T19:50:36.820Z,21.52
2023-02-27T19:53:03.127Z,21.18
2023-02-27T19:55:29.454Z,21.33
2023-02-27T19:57:55.876Z,21.40
2023-02-27T20:00:22.248Z,21.38
2023-02-27T20:02:48.623Z,21.44
2023-02-27T20:05:14.986Z,21.58
2023-02-27T20:07:41.385Z,21.55
2023-02-27T20:10:07.746Z,21.67
2023-02-27T20:12:34.171Z,21.40
2023-02-27T20:15:00.562Z,21.41
2023-02-27T20:17:26.927Z,21.39
2023-02-27T20:19:53.297Z,21.18
2023-02-27T20:22:19.667Z,21.38
2023-02-27T20:24:46.044Z,21.03
2023-02-27T20:27:12.380Z,21.38
2023-02-27T20:29:38.914Z,21.32
2023-02-27T20:32:05.352Z,21.12
2023-02-27T20:34:31.732Z,21.12
2023-02-27T20:36:58.140Z,20.86
2023-02-27T20:39:24.467Z,21.15
2023-02-27T20:41:50.784Z,21.17
2023-02-27T20:44:17.130Z,21.10
2023-02-27T20:46:43.470Z,21.46
2023-02-27T20:49:09.808Z,21.13
2023-02-27T20:51:36.223Z,21.36
2023-02-27T20:54:02.614Z,21.50
2023-02-27T20:56:28.974Z,21.30
2023-02-27T20:58:55.322Z,21.21
2023-02-27T21:01:21.820Z,21.40
2023-02-27T21:03:48.340Z,21.68
2023-02-27T21:06:14.724Z,21.32
2023-02-27T21:08:41.100Z,21.15
2023-02-27T21:11:07.434Z,21.70
2023-02-27T21:13:33.757Z,21.84
2023-02-27T21:16:00.132Z,21.33
2023-02-27T21:18:26.486Z,22.93
2023-02-27T21:20:52.796Z,26.23
2023-02-27T21:23:19.158Z,24.92
2023-02-27T21:25:45.483Z,25.10
2023-02-27T21:28:11.865Z,24.54
2023-02-27T21:30:38.231Z,24.56
2023-02-27T21:33:04.632Z,23.29
2023-02-27T21:35:31.079Z,22.60
2023-02-27T21:37:57.469Z,22.53
2023-02-27T21:40:23.814Z,22.43
2023-02-27T21:42:50.142Z,22.45
2023-02-27T21:45:16.485Z,22.11
2023-02-27T21:47:42.845Z,22.13
2023-02-27T21:50:09.254Z,21.64
2023-02-27T21:52:35.594Z,22.19
2023-02-27T21:55:01.927Z,21.45
2023-02-27T21:57:28.298Z,21.83
2023-02-27T21:59:54.647Z,21.91
2023-02-27T22:02:20.997Z,21.10
2023-02-27T22:04:47.337Z,21.72
2023-02-27T22:07:13.699Z,21.32
2023-02-27T22:09:40.062Z,21.60
2023-02-27T22:12:06.379Z,21.26
2023-02-27T22:14:32.768Z,21.19
2023-02-27T22:16:59.136Z,21.31
2023-02-27T22:19:25.454Z,21.30
2023-02-27T22:21:51.765Z,21.43
2023-02-27T22:24:18.140Z,21.39
2023-02-27T22:26:44.525Z,21.11
2023-02-27T22:29:10.934Z,21.45
2023-02-27T22:31:37.362Z,21.41
2023-02-27T22:34:03.797Z,21.25
2023-02-27T22:36:30.142Z,21.48
2023-02-27T22:38:56.449Z,21.39
2023-02-27T22:41:22.763Z,21.45
2023-02-27T22:43:49.085Z,21.29
2023-02-27T22:46:15.497Z,21.51
2023-02-27T22:48:41.809Z,21.36
2023-02-27T22:51:08.148Z,21.56
2023-02-27T22:53:34.487Z,21.58
2023-02-27T22:56:00.840Z,21.59
2023-02-27T22:58:27.163Z,21.50
2023-02-27T23:00:53.566Z,21.90
2023-02-27T23:03:19.899Z,21.71
2023-02-27T23:05:46.267Z,21.53
2023-02-27T23:08:12.684Z,21.65
2023-02-27T23:10:39.006Z,21.29
2023-02-27T23:13:05.392Z,21.25
2023-02-27T23:15:31.829Z,21.72
2023-02-27T23:17:58.811Z,21.70
2023-02-27T23:20:25.316Z,21.94
2023-02-27T23:22:51.637Z,21.66
2023-02-27T23:25:18.002Z,21.76
2023-02-27T23:27:44.324Z,21.97
2023-02-27T23:30:10.657Z,21.58
2023-02-27T23:32:37.070Z,21.70
2023-02-27T23:35:03.502Z,21.51
2023-02-27T23:37:29.857Z,21.65
2023-02-27T23:39:56.161Z,21.96
2023-02-27T23:42:22.547Z,21.52
2023-02-27T23:44:48.919Z,21.86
2023-02-27T23:47:15.296Z,21.66
2023-02-27T23:49:41.659Z,21.59
2023-02-27T23:52:07.972Z,21.76
2023-02-27T23:54:34.311Z,21.79
2023-02-27T23:57:00.609Z,21.82
2023-02-27T23:59:26.917Z,22.03
